Main page
METAR-TAF:

METAR-TAF

Airports :

Ostend–Bruges International Airport

Ostend, Belgium

latitude: 51-12N, longitude: 002-52E, elevation: 4 m

Current weather observation

The report was made 18 minutes ago, at 21:20 UTC
Wind 6 kt from the North
Temperature 13°C
Humidity 82%
Pressure 1023 hPa
Visibility 10 km or more
Broken clouds at a height of 1600 ft

METAR: EBOS 172120Z 01006KT 9999 BKN016 13/10 Q1023 TEMPO BKN014

Time: 23:38 (21:38 UTC)

Forecast

The report was made 4 hours and 28 minutes ago, at 17:10 UTC
Forecast valid from 17 at 18 UTC to 18 at 24 UTC
Wind 6 kt from the North/Northeast
Visibility 10 km or more
Few clouds at a height of 3000 ft
Temporary
from 18 at 04 UTC to 18 at 07 UTC
Scattered clouds at a height of 800 ft
Broken clouds at a height of 1200 ft

TAF: EBOS 171710Z 1718/1824 03006KT 9999 FEW030 TEMPO 1804/1807 SCT008 BKN012

Weather observations and forecasts of more than 4000 airports (METAR and TAF reports).

The available stations are represented by yellow and red dots on the map.

Hover mouse over dot to see the name of the station.

Then click to see weather observations and forecasts.

To change the map : click on the green buttons with a black cross to zoom in, on the green button with a dash to zoom out, or on the green arrows for adjacent maps.


METAR-TAF: